createdAt,value
2023-06-07T00:01:46.636Z,48.63
2023-06-07T00:04:49.807Z,48.70
2023-06-07T00:07:53.188Z,48.85
2023-06-07T00:10:57.068Z,48.82
2023-06-07T00:14:01.187Z,48.85
2023-06-07T00:17:04.346Z,49.00
2023-06-07T00:20:10.255Z,49.05
2023-06-07T00:23:21.934Z,49.27
2023-06-07T00:26:25.191Z,49.47
2023-06-07T00:29:27.842Z,49.61
2023-06-07T00:32:30.496Z,49.63
2023-06-07T00:35:33.260Z,49.65
2023-06-07T00:38:36.128Z,49.88
2023-06-07T00:41:38.913Z,50.07
2023-06-07T00:44:41.570Z,50.15
2023-06-07T00:47:44.403Z,50.08
2023-06-07T00:50:47.218Z,50.11
2023-06-07T00:53:53.500Z,50.14
2023-06-07T00:56:56.622Z,50.03
2023-06-07T00:59:59.312Z,49.83
2023-06-07T01:03:02.566Z,49.98
2023-06-07T01:06:06.798Z,50.15
2023-06-07T01:09:14.568Z,49.95
2023-06-07T01:12:19.668Z,50.16
2023-06-07T01:15:23.363Z,50.11
2023-06-07T01:18:27.897Z,50.06
2023-06-07T01:21:33.726Z,50.03
2023-06-07T01:24:38.678Z,50.11
2023-06-07T01:27:45.065Z,50.20
2023-06-07T01:30:48.654Z,50.29
2023-06-07T01:33:52.652Z,50.32
2023-06-07T01:36:56.415Z,50.27
2023-06-07T01:40:00.693Z,50.24
2023-06-07T01:43:05.594Z,50.33
2023-06-07T01:46:08.899Z,50.49
2023-06-07T01:49:13.675Z,50.38
2023-06-07T01:52:16.257Z,50.50
2023-06-07T01:55:20.924Z,50.49
2023-06-07T01:58:50.939Z,50.68
2023-06-07T02:02:01.907Z,50.50
2023-06-07T02:05:09.409Z,50.70
2023-06-07T02:08:30.940Z,50.80
2023-06-07T02:11:35.540Z,50.70
2023-06-07T02:14:38.424Z,50.94
2023-06-07T02:18:02.676Z,50.99
2023-06-07T02:21:05.686Z,51.08
2023-06-07T02:24:08.572Z,51.05
2023-06-07T02:27:11.826Z,51.07
2023-06-07T02:30:14.576Z,51.12
2023-06-07T02:33:17.546Z,51.06
2023-06-07T02:36:22.520Z,51.15
2023-06-07T02:39:25.633Z,50.94
2023-06-07T02:42:28.400Z,50.92
2023-06-07T02:45:31.079Z,50.73
2023-06-07T02:48:33.761Z,50.88
2023-06-07T02:51:38.958Z,50.74
2023-06-07T02:54:41.582Z,50.90
2023-06-07T02:57:44.380Z,51.16
2023-06-07T03:00:47.985Z,51.14
2023-06-07T03:03:50.710Z,51.25
2023-06-07T03:06:53.363Z,51.23
2023-06-07T03:09:56.403Z,51.16
2023-06-07T03:12:59.144Z,51.19
2023-06-07T03:16:01.829Z,51.27
2023-06-07T03:19:04.573Z,51.19
2023-06-07T03:22:07.879Z,51.13
2023-06-07T03:25:10.662Z,51.28
2023-06-07T03:28:13.494Z,51.20
2023-06-07T03:31:16.267Z,51.32
2023-06-07T03:34:19.573Z,51.26
2023-06-07T03:37:22.216Z,51.28
2023-06-07T03:40:24.877Z,51.00
2023-06-07T03:43:27.673Z,51.06
2023-06-07T03:46:30.411Z,50.82
2023-06-07T03:49:33.075Z,50.90
2023-06-07T03:52:35.876Z,51.06
2023-06-07T03:55:43.111Z,50.94
2023-06-07T03:58:49.171Z,51.25
2023-06-07T04:01:51.882Z,50.85
2023-06-07T04:04:55.646Z,51.18
2023-06-07T04:08:00.757Z,51.08
2023-06-07T04:11:03.702Z,51.02
2023-06-07T04:14:06.341Z,50.98
2023-06-07T04:17:09.036Z,50.98
2023-06-07T04:20:12.741Z,50.88
2023-06-07T04:23:16.412Z,50.79
2023-06-07T04:26:23.358Z,50.63
2023-06-07T04:29:27.286Z,50.73
2023-06-07T04:32:30.266Z,50.57
2023-06-07T04:35:34.999Z,50.57
2023-06-07T04:38:49.971Z,50.56
2023-06-07T04:42:04.629Z,50.49
2023-06-07T04:45:08.435Z,50.47
2023-06-07T04:48:13.053Z,50.43
2023-06-07T04:51:21.962Z,50.40
2023-06-07T04:54:24.745Z,50.51
2023-06-07T04:57:27.791Z,50.58
2023-06-07T05:00:32.084Z,50.42
2023-06-07T05:03:39.638Z,50.46
2023-06-07T05:06:43.970Z,50.43
2023-06-07T05:09:47.122Z,50.34
2023-06-07T05:12:49.797Z,50.30
2023-06-07T05:15:54.274Z,50.45
2023-06-07T05:18:57.902Z,50.28
2023-06-07T05:22:00.679Z,50.35
2023-06-07T05:31:58.099Z,49.95
2023-06-07T05:35:02.500Z,49.76
2023-06-07T05:38:05.479Z,49.65
2023-06-07T05:41:08.764Z,49.37
2023-06-07T05:44:11.459Z,49.34
2023-06-07T05:47:14.653Z,49.27
2023-06-07T05:54:08.341Z,48.94
2023-06-07T05:57:11.925Z,48.82
2023-06-07T06:00:15.486Z,48.69
2023-06-07T06:03:21.176Z,48.53
2023-06-07T06:06:25.289Z,48.46
2023-06-07T06:09:28.617Z,48.35
2023-06-07T06:13:19.299Z,48.21
2023-06-07T06:16:24.559Z,48.22
2023-06-07T06:19:27.265Z,48.14
2023-06-07T06:22:29.993Z,47.95
2023-06-07T06:25:32.939Z,47.91
2023-06-07T06:32:29.354Z,47.67
2023-06-07T06:35:34.132Z,47.66
2023-06-07T06:38:36.887Z,47.67
2023-06-07T06:41:39.777Z,47.71
2023-06-07T06:44:42.505Z,47.49
2023-06-07T06:47:45.392Z,47.58
2023-06-07T06:50:50.512Z,47.58
2023-06-07T06:53:53.113Z,47.40
2023-06-07T06:56:56.071Z,47.41
2023-06-07T07:00:00.981Z,47.48
2023-06-07T07:03:04.185Z,47.52
2023-06-07T07:06:08.980Z,47.35
2023-06-07T07:09:13.720Z,47.28
2023-06-07T07:12:16.759Z,47.34
2023-06-07T07:15:19.564Z,47.27
2023-06-07T07:18:22.207Z,47.28
2023-06-07T07:21:26.307Z,47.28
2023-06-07T07:24:29.035Z,47.23
2023-06-07T07:27:32.931Z,47.12
2023-06-07T07:30:35.596Z,47.13
2023-06-07T07:33:40.167Z,47.13
2023-06-07T07:36:45.376Z,47.06
2023-06-07T07:39:47.919Z,47.11
2023-06-07T07:42:50.612Z,47.09
2023-06-07T07:45:53.240Z,47.05
2023-06-07T07:48:56.108Z,46.94
2023-06-07T07:51:58.771Z,46.85
2023-06-07T07:55:01.869Z,46.93
2023-06-07T07:58:05.029Z,46.84
2023-06-07T08:01:10.144Z,46.79
2023-06-07T08:04:13.310Z,46.65
2023-06-07T08:07:17.111Z,46.42
2023-06-07T08:10:19.800Z,46.54
2023-06-07T08:13:22.497Z,46.54
2023-06-07T08:16:25.699Z,46.55
2023-06-07T08:19:28.807Z,46.39
2023-06-07T08:22:31.590Z,46.33
2023-06-07T08:25:34.324Z,46.34
2023-06-07T08:28:37.279Z,46.49
2023-06-07T08:31:42.861Z,46.52
2023-06-07T08:34:45.904Z,46.70
2023-06-07T08:37:48.774Z,46.57
2023-06-07T08:40:55.509Z,46.74
2023-06-07T08:43:58.310Z,46.57
2023-06-07T08:47:04.449Z,46.49
2023-06-07T08:50:13.825Z,46.62
2023-06-07T08:53:29.338Z,46.67
2023-06-07T08:56:33.654Z,46.54
2023-06-07T08:59:37.840Z,46.50
2023-06-07T09:02:40.930Z,46.56
2023-06-07T09:05:44.428Z,46.51
2023-06-07T09:08:47.384Z,46.60
2023-06-07T09:11:53.428Z,46.57
2023-06-07T09:14:57.883Z,46.57
2023-06-07T09:18:03.542Z,46.59
2023-06-07T09:21:21.045Z,46.57
2023-06-07T09:24:29.286Z,46.49
2023-06-07T09:27:31.937Z,46.68
2023-06-07T09:30:34.775Z,46.60
2023-06-07T09:33:37.567Z,46.69
2023-06-07T09:36:56.412Z,46.59
2023-06-07T09:40:08.983Z,46.38
2023-06-07T09:43:12.270Z,46.21
2023-06-07T09:46:16.382Z,46.02
2023-06-07T09:49:35.193Z,45.98
2023-06-07T09:52:38.050Z,45.71
2023-06-07T09:55:41.280Z,45.63
2023-06-07T09:58:47.382Z,45.46
2023-06-07T10:01:53.405Z,45.50
2023-06-07T10:05:01.576Z,45.31
2023-06-07T10:08:05.085Z,45.16
2023-06-07T10:11:08.423Z,45.20
2023-06-07T10:14:13.442Z,45.03
2023-06-07T10:17:17.661Z,44.89
2023-06-07T10:20:28.550Z,44.74
2023-06-07T10:24:00.954Z,44.56
2023-06-07T10:27:13.573Z,44.21
2023-06-07T10:30:17.872Z,44.27
2023-06-07T10:33:24.227Z,44.07
2023-06-07T10:36:27.267Z,43.92
2023-06-07T10:39:30.015Z,43.49
2023-06-07T10:42:34.368Z,42.79
2023-06-07T10:45:37.054Z,43.18
2023-06-07T10:48:45.066Z,43.31
2023-06-07T10:51:56.450Z,43.12
2023-06-07T10:54:59.236Z,43.04
2023-06-07T10:58:02.123Z,43.20
2023-06-07T11:01:26.748Z,43.05
2023-06-07T11:04:32.756Z,42.97
2023-06-07T11:07:39.516Z,42.91
2023-06-07T11:10:42.195Z,42.87
2023-06-07T11:14:05.188Z,42.78
2023-06-07T11:17:09.173Z,42.67
2023-06-07T11:20:11.905Z,42.15
2023-06-07T11:23:35.508Z,41.66
2023-06-07T11:26:38.568Z,41.50
2023-06-07T11:29:41.378Z,41.27
2023-06-07T11:32:46.127Z,40.51
2023-06-07T11:35:51.293Z,40.11
2023-06-07T11:38:55.780Z,39.92
2023-06-07T11:41:58.990Z,39.50
2023-06-07T11:45:02.104Z,39.35
2023-06-07T11:48:05.372Z,38.90
2023-06-07T11:51:08.210Z,38.69
2023-06-07T11:54:11.189Z,38.40
2023-06-07T11:57:14.425Z,38.26
2023-06-07T12:00:19.696Z,37.22
2023-06-07T12:03:24.066Z,37.13
2023-06-07T12:06:27.718Z,37.14
2023-06-07T12:09:30.507Z,37.07
2023-06-07T12:12:33.228Z,36.88
2023-06-07T12:15:36.178Z,36.87
2023-06-07T12:18:39.841Z,36.90
2023-06-07T12:21:43.418Z,36.65
2023-06-07T12:24:46.138Z,36.61
2023-06-07T12:27:49.107Z,36.37
2023-06-07T12:30:51.828Z,36.49
2023-06-07T12:34:03.396Z,36.38
2023-06-07T12:37:06.882Z,36.85
2023-06-07T12:40:09.760Z,37.19
2023-06-07T12:43:12.526Z,37.92
2023-06-07T12:46:15.465Z,38.40
2023-06-07T12:49:18.304Z,38.80
2023-06-07T12:52:21.441Z,39.03
2023-06-07T12:55:24.404Z,39.29
2023-06-07T12:58:27.070Z,39.63
2023-06-07T13:01:29.974Z,40.03
2023-06-07T13:04:32.885Z,40.59
2023-06-07T13:07:36.037Z,40.75
2023-06-07T13:10:38.760Z,40.84
2023-06-07T13:13:41.416Z,41.02
2023-06-07T13:16:45.666Z,41.27
2023-06-07T13:19:49.056Z,41.59
2023-06-07T13:22:51.743Z,42.02
2023-06-07T13:25:54.352Z,41.97
2023-06-07T13:28:57.005Z,42.08
2023-06-07T13:31:59.693Z,42.31
2023-06-07T13:35:02.389Z,42.46
2023-06-07T13:38:05.213Z,42.52
2023-06-07T13:41:09.035Z,42.88
2023-06-07T13:44:17.850Z,42.90
2023-06-07T13:47:22.342Z,43.23
2023-06-07T13:50:25.316Z,43.35
2023-06-07T13:53:31.149Z,43.11
2023-06-07T13:56:35.009Z,43.31
2023-06-07T13:59:37.581Z,43.56
2023-06-07T14:02:43.168Z,43.55
2023-06-07T14:05:46.293Z,43.53
2023-06-07T14:08:49.590Z,43.48
2023-06-07T14:11:52.330Z,43.75
2023-06-07T14:14:54.986Z,43.98
2023-06-07T14:18:01.055Z,44.12
2023-06-07T14:21:03.909Z,44.41
2023-06-07T14:24:07.158Z,44.44
2023-06-07T14:27:09.940Z,44.79
2023-06-07T14:30:13.080Z,45.24
2023-06-07T14:33:16.030Z,45.38
2023-06-07T14:36:19.479Z,45.01
2023-06-07T14:39:22.151Z,44.75
2023-06-07T14:42:26.138Z,45.18
2023-06-07T14:45:28.860Z,45.78
2023-06-07T14:48:31.883Z,45.64
2023-06-07T14:51:34.588Z,45.69
2023-06-07T14:54:37.145Z,45.60
2023-06-07T14:57:39.818Z,45.69
2023-06-07T15:00:42.556Z,45.52
2023-06-07T15:03:45.535Z,45.46
2023-06-07T15:06:48.328Z,45.42
2023-06-07T15:09:50.954Z,45.13
2023-06-07T15:12:53.625Z,44.71
2023-06-07T15:15:56.337Z,44.85
2023-06-07T15:18:58.976Z,44.88
2023-06-07T15:22:01.718Z,44.51
2023-06-07T15:25:09.038Z,44.59
2023-06-07T15:28:11.763Z,44.13
2023-06-07T15:31:14.685Z,43.86
2023-06-07T15:34:18.004Z,43.85
2023-06-07T15:37:20.703Z,42.74
2023-06-07T15:40:23.598Z,43.07
2023-06-07T15:43:26.450Z,42.94
2023-06-07T15:46:29.641Z,43.01
2023-06-07T15:49:32.460Z,42.91
2023-06-07T15:52:35.228Z,43.07
2023-06-07T15:55:37.922Z,43.26
2023-06-07T15:58:41.116Z,43.48
2023-06-07T16:01:44.066Z,43.20
2023-06-07T16:04:47.038Z,42.82
2023-06-07T16:07:49.778Z,42.37
2023-06-07T16:10:53.569Z,42.20
2023-06-07T16:13:56.232Z,42.38
2023-06-07T16:16:59.144Z,41.94
2023-06-07T16:20:02.206Z,41.74
2023-06-07T16:23:04.992Z,41.75
2023-06-07T16:26:07.631Z,41.24
2023-06-07T16:29:10.312Z,40.32
2023-06-07T16:32:12.972Z,39.85
2023-06-07T16:35:15.815Z,40.10
2023-06-07T16:38:18.488Z,40.51
2023-06-07T16:41:23.896Z,40.60
2023-06-07T16:44:26.876Z,41.10
2023-06-07T16:47:29.659Z,41.07
2023-06-07T16:50:32.413Z,40.49
2023-06-07T16:53:35.092Z,39.81
2023-06-07T16:56:38.359Z,39.54
2023-06-07T16:59:41.130Z,39.34
2023-06-07T17:02:44.792Z,39.75
2023-06-07T17:05:49.275Z,39.91
2023-06-07T17:08:52.024Z,40.02
2023-06-07T17:11:54.807Z,40.20
2023-06-07T17:14:57.855Z,40.85
2023-06-07T17:18:02.157Z,41.25
2023-06-07T17:21:08.194Z,42.24
2023-06-07T17:24:11.350Z,42.78
2023-06-07T17:27:14.031Z,43.19
2023-06-07T17:30:16.766Z,43.26
2023-06-07T17:33:19.478Z,43.57
2023-06-07T17:36:22.733Z,43.75
2023-06-07T17:39:25.714Z,44.17
2023-06-07T17:42:28.471Z,44.65
2023-06-07T17:45:31.244Z,44.79
2023-06-07T17:48:33.904Z,44.52
2023-06-07T17:51:38.229Z,44.81
2023-06-07T17:54:41.179Z,45.89
2023-06-07T17:57:44.901Z,45.99
2023-06-07T18:00:47.760Z,47.58
2023-06-07T18:03:52.163Z,47.62
2023-06-07T18:06:54.942Z,46.85
2023-06-07T18:09:58.092Z,46.47
2023-06-07T18:13:09.248Z,46.72
2023-06-07T18:16:12.093Z,47.53
2023-06-07T18:19:16.761Z,46.69
2023-06-07T18:22:19.736Z,47.49
2023-06-07T18:25:22.754Z,47.57
2023-06-07T18:28:25.950Z,47.56
2023-06-07T18:31:29.135Z,48.60
2023-06-07T18:34:34.340Z,48.69
2023-06-07T18:37:38.158Z,49.29
2023-06-07T18:40:41.873Z,49.37
2023-06-07T18:43:45.113Z,49.50
2023-06-07T18:46:48.011Z,50.06
2023-06-07T18:49:50.680Z,50.69
2023-06-07T18:52:56.051Z,50.15
2023-06-07T18:56:00.394Z,50.42
2023-06-07T18:59:03.270Z,51.24
2023-06-07T19:02:06.594Z,51.55
2023-06-07T19:05:09.922Z,51.50
2023-06-07T19:08:14.339Z,51.63
2023-06-07T19:11:17.072Z,51.55
2023-06-07T19:14:19.787Z,51.22
2023-06-07T19:17:23.037Z,51.34
2023-06-07T19:20:26.416Z,50.96
2023-06-07T19:23:32.625Z,51.54
2023-06-07T19:26:35.628Z,51.44
2023-06-07T19:29:41.051Z,51.65
2023-06-07T19:32:43.878Z,50.98
2023-06-07T19:35:46.690Z,51.44
2023-06-07T19:38:49.696Z,51.41
2023-06-07T19:41:57.812Z,51.66
2023-06-07T19:45:00.770Z,51.66
2023-06-07T19:48:04.160Z,51.49
2023-06-07T19:51:09.992Z,51.51
2023-06-07T19:54:12.945Z,51.52
2023-06-07T19:57:15.994Z,51.54
2023-06-07T20:00:19.005Z,52.07
2023-06-07T20:03:22.689Z,51.93
2023-06-07T20:06:25.733Z,51.98
2023-06-07T20:09:34.516Z,52.54
2023-06-07T20:12:37.515Z,52.32
2023-06-07T20:15:40.270Z,52.65
2023-06-07T20:18:43.282Z,52.46
2023-06-07T20:21:46.522Z,52.58
2023-06-07T20:24:49.298Z,52.22
2023-06-07T20:27:52.361Z,52.50
2023-06-07T20:30:55.044Z,52.56
2023-06-07T20:33:59.852Z,52.77
2023-06-07T20:37:02.757Z,52.93
2023-06-07T20:40:08.265Z,52.35
2023-06-07T20:43:11.459Z,51.98
2023-06-07T20:46:14.362Z,51.91
2023-06-07T20:49:17.167Z,51.45
2023-06-07T20:52:21.055Z,51.16
2023-06-07T20:55:23.924Z,51.13
2023-06-07T20:58:27.011Z,50.85
2023-06-07T21:01:29.829Z,50.84
2023-06-07T21:04:32.568Z,50.77
2023-06-07T21:07:35.859Z,50.68
2023-06-07T21:10:38.581Z,50.56
2023-06-07T21:13:41.555Z,50.61
2023-06-07T21:16:47.687Z,50.58
2023-06-07T21:19:52.450Z,50.35
2023-06-07T21:22:56.448Z,50.35
2023-06-07T21:25:59.293Z,50.30
2023-06-07T21:29:03.019Z,50.22
2023-06-07T21:32:06.470Z,50.07
2023-06-07T21:35:09.286Z,50.17
2023-06-07T21:38:11.906Z,49.98
2023-06-07T21:41:14.504Z,49.90
2023-06-07T21:44:17.319Z,49.90
2023-06-07T21:47:20.023Z,49.72
2023-06-07T21:50:22.814Z,49.74
2023-06-07T21:53:25.432Z,49.64
2023-06-07T21:56:27.978Z,49.57
2023-06-07T21:59:30.744Z,49.60
2023-06-07T22:02:35.566Z,49.60
2023-06-07T22:05:39.451Z,49.58
2023-06-07T22:08:42.120Z,49.55
2023-06-07T22:11:45.604Z,49.60
2023-06-07T22:14:49.603Z,49.60
2023-06-07T22:17:55.019Z,49.51
2023-06-07T22:21:01.910Z,49.54
2023-06-07T22:24:05.111Z,49.58
2023-06-07T22:27:10.640Z,49.66
2023-06-07T22:30:13.780Z,49.76
2023-06-07T22:33:17.262Z,49.55
2023-06-07T22:36:22.326Z,49.53
2023-06-07T22:39:25.046Z,49.21
2023-06-07T22:42:27.923Z,49.23
2023-06-07T22:45:31.532Z,49.13
2023-06-07T22:48:34.406Z,49.08
2023-06-07T22:51:42.239Z,49.13
2023-06-07T22:54:46.809Z,48.95
2023-06-07T22:57:49.369Z,48.89
2023-06-07T23:00:55.676Z,48.80
2023-06-07T23:03:58.613Z,48.74
2023-06-07T23:07:03.451Z,48.70
2023-06-07T23:10:09.057Z,48.71
2023-06-07T23:13:18.515Z,48.65
2023-06-07T23:16:22.213Z,48.72
2023-06-07T23:19:26.844Z,48.37
2023-06-07T23:22:30.104Z,48.52
2023-06-07T23:25:32.955Z,48.35
2023-06-07T23:28:35.707Z,48.44
2023-06-07T23:31:38.445Z,48.52
2023-06-07T23:34:41.102Z,48.57
2023-06-07T23:37:43.781Z,48.44
2023-06-07T23:40:46.700Z,48.35
2023-06-07T23:43:49.406Z,48.51
2023-06-07T23:46:52.761Z,48.22
2023-06-07T23:49:55.510Z,48.22
2023-06-07T23:52:58.224Z,48.22
2023-06-07T23:56:01.458Z,48.24
2023-06-07T23:59:07.612Z,48.18
